Time;durP1;ratioP1;P1;durP2;ratioP2;P2;SDS_P1;SDS_P2;PMS_P1;PMS_P2;Temp;Humidity;BMP_temperature;BMP_pressure;BME280_temperature;BME280_humidity;BME280_pressure;Samples;Min_cycle;Max_cycle;Signal;HPM_P1;HPM_P2
2023/03/22 00:00:52;;;;;;;17.77;7.82;;;12.70;99.90;;;;;;5065292;28;20020;-83
2023/03/22 00:03:17;;;;;;;11.10;6.72;;;12.70;99.90;;;;;;5072791;28;20021;-80
2023/03/22 00:05:44;;;;;;;13.50;6.95;;;12.60;99.90;;;;;;5069325;28;20027;-79
2023/03/22 00:08:12;;;;;;;14.25;7.53;;;12.60;99.90;;;;;;5074541;28;20084;-78
2023/03/22 00:10:38;;;;;;;16.90;7.30;;;12.50;99.90;;;;;;5074254;28;20055;-78
2023/03/22 00:13:05;;;;;;;13.88;7.40;;;12.50;99.90;;;;;;5072848;28;20029;-79
2023/03/22 00:15:31;;;;;;;13.02;7.45;;;12.50;99.90;;;;;;5073379;28;20017;-83
2023/03/22 00:17:57;;;;;;;12.48;7.15;;;12.40;99.90;;;;;;5092603;28;20020;-82
2023/03/22 00:20:24;;;;;;;15.73;7.28;;;12.40;99.90;;;;;;5073985;28;20081;-83
2023/03/22 00:22:52;;;;;;;9.65;5.50;;;12.40;99.90;;;;;;5074476;28;20393;-82
2023/03/22 00:25:18;;;;;;;13.52;7.97;;;12.40;99.90;;;;;;5088759;28;20032;-80
2023/03/22 00:27:44;;;;;;;16.05;7.22;;;12.40;99.90;;;;;;5078327;28;20419;-83
2023/03/22 00:30:10;;;;;;;15.38;6.35;;;12.40;99.90;;;;;;5074041;28;20021;-81
2023/03/22 00:32:41;;;;;;;11.35;6.82;;;12.30;99.90;;;;;;5089514;28;20048;-84
2023/03/22 00:35:08;;;;;;;9.63;6.68;;;12.30;99.90;;;;;;5070562;28;20024;-84
2023/03/22 00:37:37;;;;;;;13.15;6.07;;;12.30;99.90;;;;;;5077923;28;20028;-84
2023/03/22 00:40:11;;;;;;;11.90;6.18;;;12.20;99.90;;;;;;5080091;28;20610;-84
2023/03/22 00:42:38;;;;;;;11.25;6.25;;;12.30;99.90;;;;;;5080771;28;20021;-84
2023/03/22 00:45:05;;;;;;;11.93;5.55;;;12.30;99.90;;;;;;5072154;28;20082;-79
2023/03/22 00:47:30;;;;;;;15.65;6.45;;;12.30;99.90;;;;;;5074332;28;20074;-78
2023/03/22 00:49:56;;;;;;;10.52;5.90;;;12.30;99.90;;;;;;5076003;28;20048;-78
2023/03/22 00:52:22;;;;;;;11.95;5.95;;;12.30;99.90;;;;;;5084330;28;20047;-79
2023/03/22 00:54:47;;;;;;;11.77;5.72;;;12.30;99.90;;;;;;5072439;28;20031;-79
2023/03/22 00:57:13;;;;;;;9.90;5.57;;;12.40;99.90;;;;;;5073868;28;20399;-79
2023/03/22 00:59:41;;;;;;;13.98;6.22;;;12.40;99.90;;;;;;5079311;28;20024;-78
2023/03/22 01:02:08;;;;;;;11.60;6.03;;;12.40;99.90;;;;;;5072502;28;20040;-79
2023/03/22 01:07:16;;;;;;;13.85;6.22;;;12.40;99.90;;;;;;5064540;22;20056;-83
2023/03/22 01:09:46;;;;;;;10.02;5.78;;;12.50;99.90;;;;;;5037251;28;20028;-83
2023/03/22 01:12:11;;;;;;;11.70;5.85;;;12.40;99.90;;;;;;5022111;28;20049;-83
2023/03/22 01:14:40;;;;;;;13.23;6.43;;;12.40;99.90;;;;;;5034128;28;20140;-79
2023/03/22 01:17:08;;;;;;;13.18;6.40;;;12.40;99.90;;;;;;5019500;28;20512;-77
2023/03/22 01:19:35;;;;;;;9.55;6.32;;;12.40;99.90;;;;;;5024159;28;20053;-78
2023/03/22 01:22:02;;;;;;;13.60;6.18;;;12.40;99.90;;;;;;5039021;28;20021;-78
2023/03/22 01:24:28;;;;;;;13.45;5.95;;;12.40;99.90;;;;;;5018058;28;20032;-82
2023/03/22 01:26:53;;;;;;;13.60;6.28;;;12.40;99.90;;;;;;5013080;28;20026;-81
2023/03/22 01:29:19;;;;;;;10.02;6.38;;;12.30;99.90;;;;;;5037187;28;20021;-78
2023/03/22 01:31:45;;;;;;;17.13;6.60;;;12.30;99.90;;;;;;5018629;28;20074;-78
2023/03/22 01:34:10;;;;;;;10.85;6.00;;;12.30;99.90;;;;;;5036923;28;20159;-78
2023/03/22 01:36:36;;;;;;;14.80;7.85;;;12.20;99.90;;;;;;5021068;28;20106;-79
2023/03/22 01:39:03;;;;;;;15.68;7.88;;;12.20;99.90;;;;;;5019666;28;20159;-79
2023/03/22 01:41:28;;;;;;;12.70;7.80;;;12.20;99.90;;;;;;5039129;28;20021;-79
2023/03/22 01:44:09;;;;;;;13.73;8.00;;;12.20;99.90;;;;;;5034530;28;20029;-79
2023/03/22 01:46:35;;;;;;;14.25;8.10;;;12.10;99.90;;;;;;5017030;28;20029;-79
2023/03/22 01:49:03;;;;;;;16.02;8.30;;;12.10;99.90;;;;;;5037288;28;20005;-83
2023/03/22 01:51:29;;;;;;;18.35;9.02;;;12.10;99.90;;;;;;5033195;28;20508;-85
2023/03/22 01:54:08;;;;;;;17.10;8.60;;;12.00;99.90;;;;;;5032829;28;20450;-83
2023/03/22 01:56:40;;;;;;;15.85;8.20;;;12.00;99.90;;;;;;5015203;28;20453;-83
2023/03/22 01:59:08;;;;;;;17.85;9.10;;;12.00;99.90;;;;;;5019965;28;20339;-83
2023/03/22 02:01:34;;;;;;;17.00;8.50;;;11.90;99.90;;;;;;5023941;28;20032;-81
2023/03/22 02:04:12;;;;;;;23.30;9.48;;;11.90;99.90;;;;;;5029782;28;20117;-82
2023/03/22 02:06:38;;;;;;;16.23;8.93;;;11.90;99.90;;;;;;5037144;28;20523;-82
2023/03/22 02:09:07;;;;;;;17.13;10.05;;;11.90;99.90;;;;;;5019064;28;20046;-82
2023/03/22 02:12:02;;;;;;;18.75;9.35;;;12.00;99.90;;;;;;5033206;28;20025;-83
2023/03/22 02:14:41;;;;;;;18.70;9.73;;;12.10;99.90;;;;;;5035851;28;20119;-83
2023/03/22 02:17:37;;;;;;;17.50;9.57;;;12.10;99.90;;;;;;5038873;28;20033;-83
2023/03/22 02:20:31;;;;;;;19.35;9.82;;;12.20;99.90;;;;;;5034285;28;20025;-83
2023/03/22 02:23:38;;;;;;;23.30;10.57;;;12.20;99.90;;;;;;5045421;28;20025;-83
2023/03/22 02:26:40;;;;;;;20.73;10.38;;;12.20;99.90;;;;;;4961006;28;20041;-83
2023/03/22 02:29:35;;;;;;;21.98;10.68;;;12.20;99.90;;;;;;5015490;28;20033;-83
2023/03/22 02:32:39;;;;;;;15.98;9.23;;;12.20;99.90;;;;;;5034933;28;20025;-83
2023/03/22 02:35:25;;;;;;;24.67;9.95;;;12.20;99.90;;;;;;5029953;28;20022;-79
2023/03/22 02:38:13;;;;;;;17.80;9.20;;;12.30;99.90;;;;;;5011216;28;20370;-79
2023/03/22 02:40:51;;;;;;;18.15;9.38;;;12.20;99.90;;;;;;5035442;28;20032;-79
2023/03/22 02:43:33;;;;;;;18.02;8.82;;;12.20;99.90;;;;;;5018998;28;20025;-78
2023/03/22 02:46:06;;;;;;;22.88;9.45;;;12.20;99.90;;;;;;5030617;28;20068;-83
2023/03/22 02:48:49;;;;;;;13.57;8.60;;;12.20;99.90;;;;;;5017965;28;20088;-83
2023/03/22 02:51:35;;;;;;;16.80;8.95;;;12.20;99.90;;;;;;5034186;28;20017;-82
2023/03/22 02:54:21;;;;;;;18.95;8.88;;;12.20;99.90;;;;;;5038599;28;20036;-82
2023/03/22 02:56:53;;;;;;;18.45;8.98;;;12.20;99.90;;;;;;5034479;28;20024;-83
2023/03/22 02:59:22;;;;;;;15.25;9.35;;;12.20;99.90;;;;;;5018310;28;20392;-83
2023/03/22 03:01:59;;;;;;;17.88;8.43;;;12.20;99.90;;;;;;5036819;28;20542;-83
2023/03/22 03:04:30;;;;;;;17.27;9.23;;;12.20;99.90;;;;;;5016173;28;20422;-82
2023/03/22 03:07:04;;;;;;;20.23;9.40;;;12.20;99.90;;;;;;5034206;28;20217;-83
2023/03/22 03:09:31;;;;;;;14.98;8.68;;;12.20;99.90;;;;;;5022837;28;20028;-83
2023/03/22 03:11:56;;;;;;;15.88;8.65;;;12.20;99.90;;;;;;5022193;28;20456;-84
2023/03/22 03:14:30;;;;;;;19.30;8.85;;;12.20;99.90;;;;;;5031740;28;20017;-83
2023/03/22 03:17:05;;;;;;;13.18;8.73;;;12.20;99.90;;;;;;5034023;28;20021;-83
2023/03/22 03:19:58;;;;;;;13.77;8.27;;;12.10;99.90;;;;;;5035290;28;20504;-84
2023/03/22 03:22:51;;;;;;;21.95;8.52;;;12.10;99.90;;;;;;5036681;28;20025;-83
2023/03/22 03:25:22;;;;;;;15.73;7.97;;;12.10;99.90;;;;;;5037654;28;20120;-82
2023/03/22 03:28:17;;;;;;;13.30;7.75;;;12.10;99.90;;;;;;5035355;28;20045;-83
2023/03/22 03:30:59;;;;;;;10.93;6.60;;;12.10;99.90;;;;;;5033750;28;20034;-84
2023/03/22 03:33:30;;;;;;;11.55;7.43;;;12.00;99.90;;;;;;5033902;28;20049;-81
2023/03/22 03:36:03;;;;;;;16.08;7.00;;;11.90;99.90;;;;;;5037391;28;20044;-81
2023/03/22 03:38:32;;;;;;;14.82;6.60;;;12.00;99.90;;;;;;5012849;28;20025;-82
2023/03/22 03:41:19;;;;;;;14.07;7.47;;;11.90;99.90;;;;;;5014211;28;20055;-83
2023/03/22 03:43:47;;;;;;;16.05;7.45;;;11.90;99.90;;;;;;5031896;28;20388;-83
2023/03/22 03:46:13;;;;;;;10.05;6.60;;;11.90;99.90;;;;;;5017803;28;20928;-83
2023/03/22 03:48:44;;;;;;;12.93;6.80;;;11.90;99.90;;;;;;5033308;28;20474;-84
2023/03/22 03:51:09;;;;;;;12.07;6.57;;;11.80;99.90;;;;;;5034884;28;20025;-83
2023/03/22 03:53:35;;;;;;;14.88;6.72;;;11.80;99.90;;;;;;5016462;28;20552;-83
2023/03/22 03:56:01;;;;;;;11.38;7.65;;;11.80;99.90;;;;;;5030615;28;20104;-82
2023/03/22 03:58:29;;;;;;;16.88;7.20;;;11.80;99.90;;;;;;5022467;28;20036;-83
2023/03/22 04:00:57;;;;;;;15.10;6.68;;;11.80;99.90;;;;;;5034231;28;20055;-82
2023/03/22 04:03:25;;;;;;;13.35;6.18;;;11.70;99.90;;;;;;5017141;28;20059;-82
2023/03/22 04:05:50;;;;;;;9.07;5.82;;;11.80;99.90;;;;;;5015682;28;20048;-81
2023/03/22 04:08:16;;;;;;;13.60;6.32;;;11.70;99.90;;;;;;5036021;28;20021;-83
2023/03/22 04:10:42;;;;;;;12.63;6.13;;;11.80;99.90;;;;;;5020178;28;20028;-82
2023/03/22 04:13:09;;;;;;;13.52;6.28;;;11.80;99.90;;;;;;5022990;28;20029;-83
2023/03/22 04:15:36;;;;;;;8.82;5.47;;;11.80;99.90;;;;;;5022198;28;20009;-83
2023/03/22 04:18:02;;;;;;;13.77;5.78;;;11.80;99.90;;;;;;5029948;28;20033;-84
2023/03/22 04:20:28;;;;;;;9.65;5.55;;;11.70;99.90;;;;;;5018214;28;20018;-82
2023/03/22 04:22:54;;;;;;;10.88;5.93;;;11.80;99.90;;;;;;5023329;28;20104;-82
2023/03/22 04:25:22;;;;;;;7.70;5.13;;;11.70;99.90;;;;;;5029403;28;20113;-83
2023/03/22 04:27:54;;;;;;;9.13;5.97;;;11.80;99.90;;;;;;5014578;28;20102;-84
2023/03/22 04:30:23;;;;;;;12.05;5.22;;;11.70;99.90;;;;;;5014490;28;20446;-83
2023/03/22 04:32:49;;;;;;;7.72;5.13;;;11.60;99.90;;;;;;5031740;28;20026;-83
2023/03/22 04:35:15;;;;;;;7.32;5.07;;;11.60;99.90;;;;;;5033480;28;20032;-83
2023/03/22 04:37:41;;;;;;;14.07;5.53;;;11.60;99.90;;;;;;5020819;28;20029;-83
2023/03/22 04:40:15;;;;;;;11.07;5.32;;;11.60;99.90;;;;;;5033445;28;20038;-83
2023/03/22 04:42:41;;;;;;;9.80;5.07;;;11.60;99.90;;;;;;5014705;28;20098;-83
2023/03/22 04:45:11;;;;;;;11.20;5.25;;;11.60;99.90;;;;;;5036113;28;20052;-82
2023/03/22 04:47:37;;;;;;;10.02;5.18;;;11.50;99.90;;;;;;5045229;28;20037;-81
2023/03/22 04:50:03;;;;;;;8.48;4.60;;;11.50;99.90;;;;;;5025586;28;20488;-82
2023/03/22 04:52:29;;;;;;;9.35;4.40;;;11.40;99.90;;;;;;5053606;28;20021;-81
2023/03/22 04:54:54;;;;;;;10.07;5.00;;;11.60;99.90;;;;;;5033797;28;20029;-83
2023/03/22 04:57:21;;;;;;;10.73;4.82;;;11.50;99.90;;;;;;5030093;28;20059;-82
2023/03/22 04:59:47;;;;;;;11.75;4.78;;;11.50;99.90;;;;;;5033253;28;20025;-83
2023/03/22 05:02:12;;;;;;;5.68;4.40;;;11.50;99.90;;;;;;5032316;28;20043;-82
2023/03/22 05:04:38;;;;;;;7.75;4.55;;;11.40;99.90;;;;;;5056849;28;20092;-82
2023/03/22 05:07:04;;;;;;;7.35;4.53;;;11.50;99.90;;;;;;5026903;28;20030;-85
2023/03/22 05:09:30;;;;;;;10.18;4.20;;;11.50;99.90;;;;;;5038396;28;20014;-84
2023/03/22 05:11:58;;;;;;;7.38;4.28;;;11.40;99.90;;;;;;5038326;28;20668;-85
2023/03/22 05:14:23;;;;;;;7.95;4.28;;;11.50;99.90;;;;;;5028600;28;20013;-83
2023/03/22 05:19:23;;;;;;;10.65;4.35;;;11.40;99.90;;;;;;5016271;28;20037;-79
2023/03/22 05:21:56;;;;;;;8.40;3.72;;;11.50;99.90;;;;;;5025568;28;20027;-79
2023/03/22 05:24:22;;;;;;;8.90;3.67;;;11.50;99.90;;;;;;5017060;28;20056;-79
2023/03/22 05:26:52;;;;;;;11.25;4.13;;;11.50;99.90;;;;;;5023205;28;20493;-79
2023/03/22 05:29:18;;;;;;;5.88;3.30;;;11.40;99.90;;;;;;5023929;28;20021;-79
2023/03/22 05:31:43;;;;;;;6.93;4.35;;;11.40;99.90;;;;;;5002614;28;20029;-79
2023/03/22 05:34:09;;;;;;;12.52;4.68;;;11.40;99.90;;;;;;5023487;28;20030;-79
2023/03/22 05:36:40;;;;;;;6.03;3.83;;;11.40;99.90;;;;;;5025130;28;20021;-79
2023/03/22 05:39:06;;;;;;;6.70;3.65;;;11.40;99.90;;;;;;5000603;28;20021;-80
2023/03/22 05:41:34;;;;;;;6.82;3.97;;;11.40;99.90;;;;;;5022789;28;20496;-79
2023/03/22 05:44:00;;;;;;;9.70;3.60;;;11.50;99.90;;;;;;5021784;28;20100;-78
2023/03/22 05:46:30;;;;;;;7.03;3.78;;;11.50;99.90;;;;;;5023922;28;20161;-81
2023/03/22 05:48:56;;;;;;;8.32;3.45;;;11.40;99.90;;;;;;5023977;28;20026;-79
2023/03/22 05:51:24;;;;;;;12.40;4.15;;;11.50;99.90;;;;;;5022217;28;20033;-78
2023/03/22 05:53:52;;;;;;;12.95;3.78;;;11.50;99.90;;;;;;5013661;28;20022;-78
2023/03/22 05:56:20;;;;;;;12.55;3.83;;;11.50;99.90;;;;;;5023647;28;20025;-78
2023/03/22 05:58:46;;;;;;;8.88;3.63;;;11.50;99.90;;;;;;5014334;28;20029;-78
2023/03/22 06:01:15;;;;;;;6.03;3.13;;;11.40;99.90;;;;;;5024356;28;20512;-79
2023/03/22 06:03:41;;;;;;;9.68;3.85;;;11.50;99.90;;;;;;5019522;28;20037;-79
2023/03/22 06:06:09;;;;;;;9.70;3.70;;;11.50;99.90;;;;;;5004152;28;20044;-79
2023/03/22 06:08:38;;;;;;;6.88;3.30;;;11.60;99.90;;;;;;5023655;28;20112;-78
2023/03/22 06:11:05;;;;;;;9.20;3.28;;;11.60;99.90;;;;;;5023279;28;20377;-78
2023/03/22 06:13:31;;;;;;;13.38;3.20;;;11.50;99.90;;;;;;5022397;28;20040;-79
2023/03/22 06:16:01;;;;;;;8.95;2.70;;;11.60;99.90;;;;;;5024264;28;20029;-78
2023/03/22 06:18:27;;;;;;;8.07;3.60;;;11.60;99.90;;;;;;5009861;28;20607;-78
2023/03/22 06:20:53;;;;;;;7.07;3.50;;;11.70;99.90;;;;;;5004240;28;20044;-79
2023/03/22 06:23:21;;;;;;;11.30;3.22;;;11.70;99.90;;;;;;5004655;28;20481;-78
2023/03/22 06:25:49;;;;;;;6.47;3.17;;;11.70;99.90;;;;;;5020387;28;20037;-79
2023/03/22 06:28:15;;;;;;;8.73;3.13;;;11.70;99.90;;;;;;5022700;28;20018;-82
2023/03/22 06:30:41;;;;;;;6.05;2.90;;;11.70;99.90;;;;;;5003414;28;20474;-80
2023/03/22 06:33:06;;;;;;;13.32;3.65;;;11.80;99.90;;;;;;5004947;28;20040;-81
2023/03/22 06:35:33;;;;;;;9.82;3.17;;;11.70;99.90;;;;;;5021537;28;20034;-78
2023/03/22 06:37:59;;;;;;;9.90;3.00;;;11.80;99.90;;;;;;5023016;28;20024;-79
2023/03/22 06:40:27;;;;;;;5.90;3.42;;;11.80;99.90;;;;;;5004853;28;20029;-81
2023/03/22 06:42:53;;;;;;;9.05;3.53;;;11.80;99.90;;;;;;5003084;28;20041;-80
2023/03/22 06:45:20;;;;;;;9.60;2.63;;;11.80;99.90;;;;;;5022655;28;20029;-77
2023/03/22 06:47:46;;;;;;;8.57;3.22;;;11.80;99.90;;;;;;5022975;28;20101;-81
2023/03/22 06:50:13;;;;;;;4.07;2.78;;;11.90;99.90;;;;;;5004127;28;20878;-78
2023/03/22 06:52:39;;;;;;;5.38;2.63;;;12.00;99.90;;;;;;5005578;28;20032;-82
2023/03/22 06:55:05;;;;;;;9.07;3.03;;;12.00;99.90;;;;;;5025042;28;20447;-80
2023/03/22 06:57:30;;;;;;;13.40;3.45;;;12.00;99.90;;;;;;5032233;28;20028;-78
2023/03/22 06:59:56;;;;;;;7.55;3.60;;;12.00;99.90;;;;;;5011858;28;20053;-79
2023/03/22 07:02:21;;;;;;;8.52;3.00;;;12.10;99.90;;;;;;5003068;28;20029;-79
2023/03/22 07:04:47;;;;;;;4.90;2.58;;;12.00;99.90;;;;;;5004342;28;20029;-80
2023/03/22 07:07:13;;;;;;;5.53;2.83;;;12.00;99.90;;;;;;4998518;28;20074;-78
2023/03/22 07:09:39;;;;;;;8.80;3.28;;;12.10;99.90;;;;;;5004348;28;20629;-78
2023/03/22 07:12:05;;;;;;;9.95;3.38;;;12.10;99.90;;;;;;5021581;28;20049;-79
2023/03/22 07:14:31;;;;;;;9.25;3.28;;;12.10;99.90;;;;;;5004762;28;20108;-82
2023/03/22 07:16:57;;;;;;;8.50;3.15;;;12.30;99.90;;;;;;5011863;28;20052;-84
2023/03/22 07:19:23;;;;;;;11.90;3.20;;;12.20;99.90;;;;;;4993504;28;20033;-85
2023/03/22 07:21:49;;;;;;;8.50;3.10;;;12.30;99.90;;;;;;5024330;28;20045;-84
2023/03/22 07:24:14;;;;;;;6.10;2.38;;;12.40;99.90;;;;;;5002383;28;20056;-81
2023/03/22 07:26:40;;;;;;;4.72;2.67;;;12.40;99.90;;;;;;5023169;28;20056;-85
2023/03/22 07:29:06;;;;;;;8.13;2.88;;;12.40;99.90;;;;;;5019612;28;20041;-79
2023/03/22 07:31:35;;;;;;;7.55;2.08;;;12.50;99.90;;;;;;5009363;28;20095;-82
2023/03/22 07:34:05;;;;;;;7.45;2.42;;;12.50;99.90;;;;;;5001864;28;20091;-85
2023/03/22 07:36:31;;;;;;;13.23;2.78;;;12.50;99.90;;;;;;5020763;28;20025;-86
2023/03/22 07:39:00;;;;;;;7.43;2.30;;;12.60;99.90;;;;;;5022750;28;20098;-83
2023/03/22 07:41:27;;;;;;;10.43;2.72;;;12.60;99.90;;;;;;5021226;28;20635;-83
2023/03/22 07:43:53;;;;;;;5.78;2.10;;;12.60;99.90;;;;;;5003302;28;20033;-82
2023/03/22 07:46:18;;;;;;;5.70;2.20;;;12.60;99.90;;;;;;5013220;28;20433;-84
2023/03/22 07:48:44;;;;;;;5.40;2.22;;;12.60;99.90;;;;;;5023376;28;20048;-85
2023/03/22 07:51:10;;;;;;;5.82;1.60;;;12.70;99.90;;;;;;5002291;28;20040;-78
2023/03/22 07:53:35;;;;;;;8.45;2.20;;;12.70;99.90;;;;;;5021859;28;20075;-81
2023/03/22 07:56:03;;;;;;;8.77;2.13;;;12.80;99.90;;;;;;4998824;28;20032;-81
2023/03/22 07:58:29;;;;;;;10.13;2.50;;;13.00;99.90;;;;;;5020567;28;20039;-85
2023/03/22 08:00:54;;;;;;;8.40;2.13;;;13.10;99.90;;;;;;5003645;28;20083;-81
2023/03/22 08:03:23;;;;;;;11.02;2.70;;;13.20;99.90;;;;;;5004455;28;20566;-78
2023/03/22 08:05:51;;;;;;;13.65;4.45;;;13.40;99.90;;;;;;5017493;28;20128;-76
2023/03/22 08:08:16;;;;;;;8.00;1.90;;;13.60;99.90;;;;;;5019926;28;20116;-82
2023/03/22 08:10:47;;;;;;;8.40;2.55;;;13.50;99.90;;;;;;5002928;28;20196;-84
2023/03/22 08:13:12;;;;;;;5.15;1.67;;;13.60;99.90;;;;;;5023886;28;20303;-87
2023/03/22 08:15:38;;;;;;;11.30;2.55;;;13.50;99.90;;;;;;5023539;28;20073;-85
2023/03/22 08:18:03;;;;;;;4.40;1.80;;;13.50;99.90;;;;;;5004105;28;20120;-86
2023/03/22 08:20:29;;;;;;;55.33;16.20;;;13.50;99.90;;;;;;5021217;28;20022;-78
2023/03/22 08:22:55;;;;;;;8.25;2.33;;;13.50;99.90;;;;;;5011312;28;20250;-85
2023/03/22 08:25:22;;;;;;;4.18;2.08;;;13.40;99.90;;;;;;5006576;28;20018;-84
2023/03/22 08:27:48;;;;;;;11.38;1.98;;;13.30;99.90;;;;;;5024723;28;20519;-89
2023/03/22 08:30:14;;;;;;;12.95;2.30;;;13.20;99.90;;;;;;5014995;28;20124;-86
2023/03/22 08:32:40;;;;;;;8.05;1.77;;;13.30;99.90;;;;;;5002627;28;20516;-85
2023/03/22 08:35:06;;;;;;;8.13;1.73;;;13.40;99.90;;;;;;5005526;28;20018;-84
2023/03/22 08:37:32;;;;;;;13.15;2.25;;;13.40;99.90;;;;;;4996342;28;20032;-78
2023/03/22 08:40:00;;;;;;;8.10;2.10;;;13.50;99.90;;;;;;5014342;28;20105;-78
2023/03/22 08:42:26;;;;;;;11.13;2.15;;;13.70;99.90;;;;;;5000479;28;20390;-79
2023/03/22 08:44:54;;;;;;;6.97;2.03;;;13.80;99.90;;;;;;5016586;28;20028;-81
2023/03/22 08:47:22;;;;;;;6.82;1.95;;;14.00;99.90;;;;;;5015939;28;20139;-78
2023/03/22 08:49:50;;;;;;;19.38;4.63;;;14.10;99.90;;;;;;5017926;28;20045;-78
2023/03/22 08:52:15;;;;;;;5.75;2.10;;;14.20;99.90;;;;;;4998767;28;20041;-80
2023/03/22 08:54:43;;;;;;;5.75;2.20;;;14.40;99.90;;;;;;5017347;28;20490;-80
2023/03/22 08:57:09;;;;;;;9.90;1.73;;;14.20;99.90;;;;;;5019630;28;20030;-80
2023/03/22 08:59:35;;;;;;;9.20;2.20;;;14.20;99.90;;;;;;4998977;28;20040;-79
2023/03/22 09:02:03;;;;;;;10.95;2.67;;;14.20;99.90;;;;;;5018053;28;20781;-79
2023/03/22 09:04:29;;;;;;;10.73;1.85;;;14.10;99.90;;;;;;4998433;28;20033;-79
2023/03/22 09:06:55;;;;;;;5.70;1.70;;;14.00;99.90;;;;;;4993700;28;20184;-79
2023/03/22 09:09:21;;;;;;;9.77;2.10;;;13.80;99.90;;;;;;4992603;28;20117;-79
2023/03/22 09:11:46;;;;;;;9.00;2.05;;;13.70;99.90;;;;;;4998498;28;20025;-79
2023/03/22 09:14:12;;;;;;;4.60;1.83;;;13.70;99.90;;;;;;5017513;28;20040;-79
2023/03/22 09:16:38;;;;;;;4.57;1.58;;;13.60;99.90;;;;;;5005818;28;20316;-80
2023/03/22 09:19:03;;;;;;;5.47;1.70;;;13.50;99.90;;;;;;4997248;28;20128;-79
2023/03/22 09:21:29;;;;;;;5.68;1.55;;;13.60;99.90;;;;;;5017496;28;20029;-79
2023/03/22 09:23:57;;;;;;;5.93;1.50;;;13.60;99.90;;;;;;4999067;28;20029;-78
2023/03/22 09:26:24;;;;;;;8.20;2.58;;;13.60;99.90;;;;;;5017952;28;20415;-84
2023/03/22 09:28:50;;;;;;;4.50;1.90;;;13.70;99.90;;;;;;4999996;28;20136;-79
2023/03/22 09:31:15;;;;;;;7.65;1.75;;;13.80;99.90;;;;;;5024538;28;20429;-79
2023/03/22 09:33:41;;;;;;;6.38;1.83;;;13.90;99.90;;;;;;5030898;28;20076;-79
2023/03/22 09:36:10;;;;;;;7.07;2.00;;;14.10;99.90;;;;;;5031748;28;20030;-81
2023/03/22 09:38:37;;;;;;;12.60;2.25;;;14.30;99.90;;;;;;5019588;28;20293;-84
2023/03/22 09:41:17;;;;;;;7.10;1.95;;;14.50;99.90;;;;;;5012212;28;20029;-90
2023/03/22 09:43:53;;;;;;;11.25;2.05;;;14.50;99.90;;;;;;5012049;28;20183;-86
2023/03/22 09:46:28;;;;;;;5.30;1.55;;;15.50;99.90;;;;;;5030987;28;20225;-84
2023/03/22 09:48:55;;;;;;;9.00;1.40;;;16.20;99.90;;;;;;5032080;28;20029;-84
2023/03/22 09:51:38;;;;;;;5.68;1.90;;;16.90;99.90;;;;;;5013401;28;20025;-80
2023/03/22 09:54:16;;;;;;;8.95;1.52;;;16.90;99.90;;;;;;5010784;28;20518;-79
2023/03/22 09:56:43;;;;;;;6.78;2.00;;;16.40;99.90;;;;;;5007434;28;20124;-80
2023/03/22 09:59:32;;;;;;;7.65;1.67;;;15.60;99.90;;;;;;5013513;28;20553;-80
2023/03/22 10:02:10;;;;;;;9.18;1.48;;;15.70;99.90;;;;;;5025207;28;20067;-81
2023/03/22 10:05:11;;;;;;;7.85;1.63;;;15.40;99.90;;;;;;4995387;28;20022;-81
2023/03/22 10:07:55;;;;;;;8.23;1.85;;;15.60;99.90;;;;;;5014219;28;20029;-79
2023/03/22 10:10:23;;;;;;;11.90;1.80;;;15.50;99.90;;;;;;5023325;28;20042;-80
2023/03/22 10:12:56;;;;;;;6.13;2.15;;;15.40;99.90;;;;;;5027958;28;20036;-81
2023/03/22 10:15:40;;;;;;;9.68;1.60;;;15.10;99.90;;;;;;5013551;28;20060;-80
2023/03/22 10:18:07;;;;;;;;;;;15.10;99.90;;;;;;5004226;28;20035;-81
2023/03/22 10:20:41;;;;;;;7.85;1.73;;;15.20;99.90;;;;;;5020014;28;19916;-79
2023/03/22 10:23:15;;;;;;;14.63;2.15;;;15.10;99.90;;;;;;5006808;28;20037;-79
2023/03/22 10:25:42;;;;;;;12.02;1.92;;;15.00;99.90;;;;;;5013975;28;20244;-80
2023/03/22 10:28:36;;;;;;;7.32;1.85;;;14.80;99.90;;;;;;5023701;28;20481;-79
2023/03/22 10:31:01;;;;;;;17.10;2.40;;;14.70;99.90;;;;;;5000394;28;20014;-78
2023/03/22 10:33:57;;;;;;;7.75;1.38;;;14.60;99.90;;;;;;5023729;28;20033;-79
2023/03/22 10:36:27;;;;;;;11.00;1.90;;;14.60;99.90;;;;;;5013815;28;20029;-79
2023/03/22 10:38:59;;;;;;;6.95;1.50;;;14.60;99.90;;;;;;5001038;28;20523;-79
2023/03/22 10:41:27;;;;;;;4.38;1.50;;;14.60;99.90;;;;;;4996346;28;20104;-80
2023/03/22 10:43:56;;;;;;;7.88;1.63;;;14.60;99.90;;;;;;5023277;28;20087;-80
2023/03/22 10:46:25;;;;;;;5.00;1.13;;;14.60;99.90;;;;;;5011795;28;20041;-80
2023/03/22 10:48:56;;;;;;;9.77;1.35;;;14.70;99.90;;;;;;5006374;28;20014;-81
2023/03/22 10:51:41;;;;;;;9.73;0.98;;;14.70;99.90;;;;;;5005215;28;20492;-80
2023/03/22 10:54:13;;;;;;;12.70;2.22;;;14.70;99.90;;;;;;4992376;28;20316;-77
2023/03/22 10:56:38;;;;;;;17.92;5.65;;;14.70;99.90;;;;;;5010405;28;20043;-78
2023/03/22 10:59:06;;;;;;;14.85;4.13;;;14.70;99.90;;;;;;5024830;28;20484;-80
2023/03/22 11:01:38;;;;;;;9.23;1.67;;;14.70;99.90;;;;;;5024329;28;20017;-79
2023/03/22 11:04:15;;;;;;;11.00;1.98;;;14.70;99.90;;;;;;5000373;28;20010;-81
2023/03/22 11:06:52;;;;;;;4.70;1.50;;;14.40;99.90;;;;;;5020127;28;20073;-82
2023/03/22 11:09:20;;;;;;;9.50;2.05;;;14.30;99.90;;;;;;5009998;28;20036;-79
2023/03/22 11:11:52;;;;;;;5.57;1.60;;;14.30;99.90;;;;;;5024564;28;20029;-79
2023/03/22 11:14:26;;;;;;;7.03;1.40;;;14.30;99.90;;;;;;5025534;28;20041;-81
2023/03/22 11:17:00;;;;;;;13.40;1.88;;;14.20;99.90;;;;;;5010660;28;20218;-83
2023/03/22 11:19:52;;;;;;;3.75;1.40;;;14.20;99.90;;;;;;5040911;28;20045;-81
2023/03/22 11:22:38;;;;;;;18.33;2.05;;;14.30;99.90;;;;;;5023306;28;20034;-84
2023/03/22 11:25:27;;;;;;;17.13;1.83;;;14.30;99.90;;;;;;5046636;28;20021;-86
2023/03/22 11:28:19;;;;;;;5.47;1.30;;;14.30;99.90;;;;;;5047372;28;20087;-86
2023/03/22 11:31:11;;;;;;;8.63;1.65;;;14.20;99.90;;;;;;5035665;28;20021;-85
2023/03/22 11:33:37;;;;;;;8.50;1.67;;;14.00;99.90;;;;;;5034172;28;20436;-80
2023/03/22 11:36:15;;;;;;;6.20;2.13;;;14.20;99.90;;;;;;5029675;28;20230;-79
2023/03/22 11:38:44;;;;;;;3.17;1.33;;;14.10;99.90;;;;;;5050367;28;20031;-83
2023/03/22 11:41:22;;;;;;;9.02;1.30;;;14.10;99.90;;;;;;5028947;28;20021;-82
2023/03/22 11:43:56;;;;;;;3.40;1.33;;;14.10;99.90;;;;;;5010123;28;20034;-90
2023/03/22 11:46:23;;;;;;;3.75;1.40;;;14.00;99.90;;;;;;5035638;28;20201;-82
2023/03/22 11:48:51;;;;;;;3.97;1.05;;;13.90;99.90;;;;;;5019773;28;20405;-86
2023/03/22 11:51:34;;;;;;;7.50;1.45;;;13.90;99.90;;;;;;5036920;28;20017;-90
2023/03/22 11:54:03;;;;;;;;;;;13.70;99.90;;;;;;5029268;28;20112;-88
2023/03/22 11:56:29;;;;;;;6.07;1.30;;;13.80;99.90;;;;;;5028570;28;19913;-85
2023/03/22 11:59:04;;;;;;;6.68;1.50;;;13.80;99.90;;;;;;5012276;28;20029;-87
2023/03/22 12:01:41;;;;;;;8.73;1.60;;;13.80;99.90;;;;;;5030244;28;20089;-86
2023/03/22 12:04:13;;;;;;;10.05;1.63;;;13.80;99.90;;;;;;5030720;28;20040;-82
2023/03/22 12:06:41;;;;;;;11.07;2.43;;;13.90;99.90;;;;;;5013378;28;20033;-86
2023/03/22 12:09:21;;;;;;;8.73;1.85;;;14.00;99.90;;;;;;5022202;28;20029;-82
2023/03/22 12:11:52;;;;;;;7.30;2.13;;;14.00;99.90;;;;;;5008961;28;20127;-88
2023/03/22 12:14:28;;;;;;;5.88;1.38;;;14.00;99.90;;;;;;5026835;28;20084;-84
2023/03/22 12:17:19;;;;;;;9.23;1.50;;;14.10;99.90;;;;;;5019090;28;20022;-84
2023/03/22 12:20:09;;;;;;;6.30;2.03;;;14.20;99.90;;;;;;5036390;28;20033;-90
2023/03/22 12:22:40;;;;;;;5.68;1.90;;;14.00;99.90;;;;;;5014993;28;20056;-88
2023/03/22 12:25:19;;;;;;;7.10;1.55;;;14.10;99.90;;;;;;5013677;28;20403;-87
2023/03/22 12:27:51;;;;;;;7.55;1.63;;;14.00;99.90;;;;;;5014774;28;20056;-85
2023/03/22 12:30:30;;;;;;;9.73;1.83;;;14.20;99.90;;;;;;5014159;28;20097;-91
2023/03/22 12:33:05;;;;;;;7.82;1.60;;;14.20;99.90;;;;;;5012127;28;20045;-85
2023/03/22 12:35:34;;;;;;;9.23;1.63;;;14.40;99.90;;;;;;5012201;28;20163;-84
2023/03/22 12:38:32;;;;;;;8.70;1.48;;;14.40;99.90;;;;;;5008393;28;20401;-87
2023/03/22 12:41:03;;;;;;;10.40;1.70;;;14.20;99.90;;;;;;5029661;28;20482;-85
2023/03/22 12:43:51;;;;;;;5.07;1.20;;;14.30;99.90;;;;;;5013539;28;20103;-85
2023/03/22 12:46:22;;;;;;;5.03;1.63;;;14.30;99.90;;;;;;5026749;28;20481;-84
2023/03/22 12:49:03;;;;;;;7.18;1.35;;;14.30;99.90;;;;;;5021769;28;20010;-82
2023/03/22 12:51:29;;;;;;;10.27;1.33;;;14.20;99.90;;;;;;5012339;28;20136;-91
2023/03/22 12:53:57;;;;;;;9.30;2.03;;;14.00;99.90;;;;;;5008519;28;20360;-83
2023/03/22 12:56:37;;;;;;;7.20;1.17;;;14.10;99.90;;;;;;5016201;28;20615;-88
2023/03/22 12:59:10;;;;;;;8.02;1.40;;;14.00;99.90;;;;;;5006549;28;20029;-84
2023/03/22 13:01:45;;;;;;;5.63;1.35;;;13.90;99.90;;;;;;5023379;28;20193;-83
2023/03/22 13:04:35;;;;;;;6.88;0.98;;;14.00;99.90;;;;;;5010110;28;20060;-84
2023/03/22 13:07:16;;;;;;;9.20;1.40;;;14.00;99.90;;;;;;5013959;28;20032;-86